createdAt,value
2023-03-15T00:00:24.998Z,3.05
2023-03-15T00:02:52.058Z,3.53
2023-03-15T00:05:19.286Z,3.42
2023-03-15T00:07:46.358Z,3.33
2023-03-15T00:10:14.047Z,3.50
2023-03-15T00:12:45.950Z,3.20
2023-03-15T00:15:15.906Z,3.28
2023-03-15T00:17:43.109Z,3.65
2023-03-15T00:20:11.267Z,3.40
2023-03-15T00:22:38.696Z,4.00
2023-03-15T00:25:06.243Z,4.93
2023-03-15T00:27:33.340Z,4.70
2023-03-15T00:30:00.545Z,4.07
2023-03-15T00:32:27.623Z,4.57
2023-03-15T00:34:55.020Z,5.30
2023-03-15T00:37:22.069Z,5.03
2023-03-15T00:39:49.239Z,4.70
2023-03-15T00:42:16.239Z,5.63
2023-03-15T00:44:47.302Z,5.07
2023-03-15T00:47:15.070Z,5.18
2023-03-15T00:49:42.115Z,5.25
2023-03-15T00:52:09.279Z,5.10
2023-03-15T00:54:36.533Z,4.65
2023-03-15T00:57:03.986Z,5.35
2023-03-15T00:59:35.113Z,4.75
2023-03-15T01:02:03.412Z,5.40
2023-03-15T01:04:31.666Z,4.75
2023-03-15T01:06:59.336Z,4.50
2023-03-15T01:09:26.442Z,5.88
2023-03-15T01:11:53.441Z,4.53
2023-03-15T01:14:20.626Z,4.18
2023-03-15T01:16:47.697Z,4.20
2023-03-15T01:19:14.768Z,4.38
2023-03-15T01:21:41.937Z,4.78
2023-03-15T01:24:13.489Z,4.90
2023-03-15T01:26:41.104Z,4.07
2023-03-15T01:29:08.370Z,3.67
2023-03-15T01:31:35.622Z,4.53
2023-03-15T01:34:02.837Z,3.90
2023-03-15T01:36:32.846Z,4.72
2023-03-15T01:38:59.935Z,4.53
2023-03-15T01:41:39.083Z,4.30
2023-03-15T01:44:06.153Z,4.93
2023-03-15T01:46:36.584Z,4.18
2023-03-15T01:49:24.202Z,4.13
2023-03-15T01:52:09.598Z,4.00
2023-03-15T01:55:04.376Z,4.07
2023-03-15T01:57:37.613Z,4.60
2023-03-15T02:00:13.651Z,4.18
2023-03-15T02:02:56.032Z,3.67
2023-03-15T02:05:32.660Z,3.72
2023-03-15T02:08:03.358Z,3.80
2023-03-15T02:10:44.267Z,2.75
2023-03-15T02:13:15.895Z,3.65
2023-03-15T02:15:49.782Z,3.40
2023-03-15T02:18:25.063Z,2.97
2023-03-15T02:21:10.400Z,2.80
2023-03-15T02:23:37.506Z,2.58
2023-03-15T02:26:17.924Z,2.67
2023-03-15T02:31:13.502Z,2.70
2023-03-15T02:33:46.298Z,2.58
2023-03-15T02:36:25.107Z,2.33
2023-03-15T02:38:53.428Z,2.53
2023-03-15T02:41:39.052Z,2.30
2023-03-15T02:44:14.458Z,2.88
2023-03-15T02:46:43.231Z,1.98
2023-03-15T02:49:11.464Z,2.10
2023-03-15T02:51:38.671Z,2.83
2023-03-15T02:54:05.723Z,2.58
2023-03-15T02:56:33.719Z,2.35
2023-03-15T02:59:01.798Z,2.20
2023-03-15T03:01:29.408Z,2.40
2023-03-15T03:03:56.976Z,2.60
2023-03-15T03:06:24.776Z,2.40
2023-03-15T03:08:52.008Z,2.10
2023-03-15T03:11:20.974Z,2.85
2023-03-15T03:13:48.083Z,2.40
2023-03-15T03:16:15.125Z,2.67
2023-03-15T03:18:43.398Z,2.38
2023-03-15T03:21:10.571Z,2.97
2023-03-15T03:23:37.992Z,2.72
2023-03-15T03:26:17.082Z,2.70
2023-03-15T03:28:47.670Z,3.88
2023-03-15T03:31:25.200Z,2.00
2023-03-15T03:33:55.476Z,2.15
2023-03-15T03:36:22.656Z,2.10
2023-03-15T03:38:51.695Z,2.85
2023-03-15T03:41:18.708Z,2.40
2023-03-15T03:43:45.790Z,2.47
2023-03-15T03:46:12.994Z,2.50
2023-03-15T03:48:46.174Z,2.63
2023-03-15T03:51:13.432Z,2.00
2023-03-15T03:53:40.408Z,1.85
2023-03-15T03:56:08.862Z,2.17
2023-03-15T03:58:36.975Z,1.80
2023-03-15T04:01:12.208Z,2.30
2023-03-15T04:03:41.040Z,2.10
2023-03-15T04:06:15.077Z,2.15
2023-03-15T04:08:45.147Z,2.40
2023-03-15T04:11:17.946Z,2.70
2023-03-15T04:13:51.105Z,2.05
2023-03-15T04:16:18.223Z,2.40
2023-03-15T04:18:56.543Z,2.38
2023-03-15T04:21:24.711Z,2.03
2023-03-15T04:23:56.454Z,3.03
2023-03-15T04:26:43.452Z,1.73
2023-03-15T04:29:33.417Z,1.98
2023-03-15T04:32:20.762Z,2.30
2023-03-15T04:35:13.852Z,2.40
2023-03-15T04:38:13.356Z,2.47
2023-03-15T04:40:43.022Z,2.33
2023-03-15T04:43:30.339Z,2.13
2023-03-15T04:46:35.921Z,2.40
2023-03-15T04:49:29.225Z,2.22
2023-03-15T04:52:08.454Z,2.10
2023-03-15T04:57:48.218Z,3.23
2023-03-15T05:00:48.034Z,2.10
2023-03-15T05:03:36.945Z,1.80
2023-03-15T05:06:19.186Z,2.20
2023-03-15T05:08:49.267Z,2.03
2023-03-15T05:11:39.337Z,2.25
2023-03-15T05:14:26.664Z,3.28
2023-03-15T05:17:26.466Z,1.93
2023-03-15T05:37:10.500Z,2.50
2023-03-15T05:39:56.361Z,2.15
2023-03-15T05:42:49.611Z,1.95
2023-03-15T05:45:30.096Z,2.20
2023-03-15T05:48:05.214Z,2.22
2023-03-15T05:50:53.172Z,2.20
2023-03-15T05:53:55.457Z,1.95
2023-03-15T05:56:36.302Z,2.67
2023-03-15T05:59:22.522Z,2.85
2023-03-15T06:02:10.147Z,3.17
2023-03-15T06:04:50.818Z,3.28
2023-03-15T06:07:21.980Z,3.40
2023-03-15T06:09:49.155Z,3.65
2023-03-15T06:12:16.173Z,2.33
2023-03-15T06:14:43.563Z,3.42
2023-03-15T06:17:11.994Z,3.42
2023-03-15T06:19:42.340Z,3.03
2023-03-15T06:22:10.255Z,2.83
2023-03-15T06:24:50.870Z,3.15
2023-03-15T06:27:22.167Z,2.92
2023-03-15T06:29:50.850Z,3.08
2023-03-15T06:32:21.067Z,2.15
2023-03-15T06:34:48.293Z,2.38
2023-03-15T06:37:22.723Z,3.30
2023-03-15T06:39:56.777Z,2.85
2023-03-15T06:42:23.939Z,2.78
2023-03-15T06:44:51.330Z,3.00
2023-03-15T06:47:19.741Z,2.42
2023-03-15T06:49:50.558Z,2.97
2023-03-15T06:52:19.309Z,2.63
2023-03-15T06:54:46.509Z,2.72
2023-03-15T06:57:13.618Z,2.90
2023-03-15T06:59:40.947Z,3.08
2023-03-15T07:02:14.835Z,3.08
2023-03-15T07:04:42.031Z,3.28
2023-03-15T07:07:09.174Z,3.00
2023-03-15T07:09:36.260Z,3.63
2023-03-15T07:12:03.631Z,3.25
2023-03-15T07:14:30.782Z,3.40
2023-03-15T07:16:57.877Z,3.08
2023-03-15T07:19:25.109Z,3.40
2023-03-15T07:21:52.393Z,3.28
2023-03-15T07:24:19.744Z,3.25
2023-03-15T07:26:46.946Z,4.05
2023-03-15T07:29:14.160Z,4.63
2023-03-15T07:31:41.193Z,4.13
2023-03-15T07:34:08.361Z,3.85
2023-03-15T07:36:35.428Z,3.97
2023-03-15T07:39:02.701Z,3.67
2023-03-15T07:41:30.029Z,3.38
2023-03-15T07:44:06.468Z,4.80
2023-03-15T07:46:33.753Z,3.50
2023-03-15T07:49:00.809Z,3.45
2023-03-15T07:51:27.857Z,3.75
2023-03-15T07:53:54.981Z,3.90
2023-03-15T07:56:22.090Z,4.13
2023-03-15T07:58:49.139Z,3.88
2023-03-15T08:01:16.288Z,4.57
2023-03-15T08:03:44.011Z,4.70
2023-03-15T08:06:11.069Z,3.42
2023-03-15T08:08:38.222Z,3.63
2023-03-15T08:11:06.070Z,4.10
2023-03-15T08:13:34.118Z,3.50
2023-03-15T08:16:01.596Z,3.55
2023-03-15T08:18:31.682Z,3.72
2023-03-15T08:20:59.425Z,3.67
2023-03-15T08:23:26.499Z,3.45
2023-03-15T08:25:53.728Z,3.45
2023-03-15T08:28:20.922Z,3.70
2023-03-15T08:30:47.914Z,3.70
2023-03-15T08:33:14.949Z,3.70
2023-03-15T08:35:42.224Z,4.15
2023-03-15T08:38:09.606Z,4.57
2023-03-15T08:40:38.908Z,4.30
2023-03-15T08:43:07.070Z,3.75
2023-03-15T08:45:50.949Z,4.20
2023-03-15T08:48:21.382Z,4.30
2023-03-15T08:50:48.983Z,4.43
2023-03-15T08:53:16.217Z,5.18
2023-03-15T08:55:43.406Z,4.22
2023-03-15T08:58:13.022Z,5.15
2023-03-15T09:00:40.727Z,4.15
2023-03-15T09:03:07.822Z,4.07
2023-03-15T09:05:34.957Z,4.70
2023-03-15T09:08:02.249Z,3.97
2023-03-15T09:10:29.586Z,4.18
2023-03-15T09:12:56.889Z,4.07
2023-03-15T09:15:24.026Z,3.85
2023-03-15T09:17:51.962Z,4.43
2023-03-15T09:20:22.162Z,3.40
2023-03-15T09:25:22.303Z,2.80
2023-03-15T09:27:50.160Z,3.30
2023-03-15T09:30:17.996Z,3.13
2023-03-15T09:32:46.149Z,3.60
2023-03-15T09:35:16.709Z,3.97
2023-03-15T09:37:44.148Z,2.60
2023-03-15T09:40:35.221Z,3.17
2023-03-15T09:43:09.178Z,2.70
2023-03-15T09:45:45.582Z,3.13
2023-03-15T09:48:38.100Z,4.35
2023-03-15T09:51:35.954Z,3.88
2023-03-15T09:54:15.473Z,3.28
2023-03-15T09:57:04.953Z,3.15
2023-03-15T09:59:38.707Z,3.10
2023-03-15T10:02:25.118Z,3.33
2023-03-15T10:05:08.362Z,3.40
2023-03-15T10:07:36.182Z,3.97
2023-03-15T10:10:05.124Z,3.78
2023-03-15T10:12:41.588Z,3.67
2023-03-15T10:15:26.411Z,3.40
2023-03-15T10:17:59.188Z,3.05
2023-03-15T10:20:41.585Z,3.35
2023-03-15T10:23:45.527Z,4.00
2023-03-15T10:26:16.024Z,3.22
2023-03-15T10:28:44.196Z,3.05
2023-03-15T10:31:25.979Z,3.67
2023-03-15T10:33:59.781Z,2.80
2023-03-15T10:36:27.178Z,3.00
2023-03-15T10:38:54.560Z,3.25
2023-03-15T10:41:40.712Z,2.70
2023-03-15T10:44:13.943Z,3.38
2023-03-15T10:46:41.231Z,3.50
2023-03-15T10:49:09.911Z,3.33
2023-03-15T10:51:47.989Z,3.22
2023-03-15T10:54:23.159Z,3.40
2023-03-15T10:57:06.417Z,4.38
2023-03-15T10:59:35.905Z,3.17
2023-03-15T11:02:11.808Z,2.73
2023-03-15T11:04:43.929Z,4.57
2023-03-15T11:07:13.717Z,4.00
2023-03-15T11:09:45.980Z,3.00
2023-03-15T11:12:21.617Z,2.70
2023-03-15T11:14:58.430Z,3.17
2023-03-15T11:17:29.407Z,3.00
2023-03-15T11:19:59.635Z,3.78
2023-03-15T11:24:58.673Z,3.40
2023-03-15T11:27:28.075Z,4.00
2023-03-15T11:29:58.427Z,3.40
2023-03-15T11:32:29.342Z,3.22
2023-03-15T11:35:24.595Z,3.45
2023-03-15T11:37:58.538Z,2.90
2023-03-15T11:40:33.006Z,3.78
2023-03-15T11:43:03.031Z,4.68
2023-03-15T11:45:42.108Z,2.97
2023-03-15T11:48:36.632Z,2.88
2023-03-15T11:51:04.410Z,2.67
2023-03-15T11:53:37.199Z,3.03
2023-03-15T11:56:21.603Z,3.55
2023-03-15T11:59:08.789Z,2.88
2023-03-15T12:01:36.136Z,3.45
2023-03-15T12:04:24.798Z,4.03
2023-03-15T12:06:57.392Z,3.67
2023-03-15T12:09:52.633Z,3.20
2023-03-15T12:12:25.523Z,2.85
2023-03-15T12:15:20.260Z,3.10
2023-03-15T12:17:51.497Z,3.17
2023-03-15T12:20:21.741Z,2.97
2023-03-15T12:25:48.964Z,2.92
2023-03-15T12:28:30.525Z,3.05
2023-03-15T12:31:02.110Z,3.03
2023-03-15T12:33:32.421Z,2.70
2023-03-15T12:36:09.523Z,2.60
2023-03-15T12:38:39.356Z,3.40
2023-03-15T12:41:30.053Z,2.85
2023-03-15T12:44:32.070Z,2.13
2023-03-15T12:47:01.124Z,2.78
2023-03-15T12:49:57.299Z,2.45
2023-03-15T12:52:43.352Z,2.60
2023-03-15T12:55:10.337Z,3.05
2023-03-15T12:57:46.790Z,2.30
2023-03-15T13:00:23.308Z,2.67
2023-03-15T13:03:01.898Z,2.13
2023-03-15T13:05:37.699Z,1.92
2023-03-15T13:08:09.517Z,2.22
2023-03-15T13:10:39.300Z,2.70
2023-03-15T13:13:18.218Z,3.20
2023-03-15T13:16:22.733Z,2.60
2023-03-15T13:19:05.530Z,2.05
2023-03-15T13:21:40.020Z,2.40
2023-03-15T13:24:17.361Z,2.58
2023-03-15T13:26:55.585Z,2.35
2023-03-15T13:29:31.580Z,2.80
2023-03-15T13:32:09.498Z,2.63
2023-03-15T13:34:36.863Z,2.53
2023-03-15T13:37:04.426Z,2.17
2023-03-15T13:39:34.359Z,3.05
2023-03-15T13:42:16.713Z,2.28
2023-03-15T13:44:44.157Z,2.88
2023-03-15T13:47:22.101Z,2.85
2023-03-15T13:49:53.052Z,2.53
2023-03-15T13:52:20.753Z,2.83
2023-03-15T13:54:48.385Z,2.80
2023-03-15T13:57:23.724Z,2.60
2023-03-15T14:00:00.756Z,2.53
2023-03-15T14:02:38.047Z,3.25
2023-03-15T14:05:14.849Z,2.67
2023-03-15T14:07:45.979Z,2.90
2023-03-15T14:10:19.279Z,3.00
2023-03-15T14:12:46.851Z,3.03
2023-03-15T14:15:24.229Z,3.25
2023-03-15T14:18:01.117Z,3.55
2023-03-15T14:20:36.556Z,3.00
2023-03-15T14:23:05.076Z,3.75
2023-03-15T14:25:36.498Z,2.40
2023-03-15T14:28:05.715Z,3.67
2023-03-15T14:30:38.077Z,3.30
2023-03-15T14:33:09.019Z,2.35
2023-03-15T14:35:36.033Z,3.05
2023-03-15T14:38:23.686Z,2.97
2023-03-15T14:40:52.207Z,2.92
2023-03-15T14:43:19.750Z,4.43
2023-03-15T14:45:48.913Z,3.70
2023-03-15T14:48:29.220Z,3.42
2023-03-15T14:50:56.717Z,3.20
2023-03-15T14:53:26.953Z,2.65
2023-03-15T14:55:54.120Z,2.75
2023-03-15T14:58:22.788Z,2.75
2023-03-15T15:00:53.586Z,2.42
2023-03-15T15:03:29.753Z,2.83
2023-03-15T15:05:57.048Z,2.80
2023-03-15T15:08:24.223Z,2.63
2023-03-15T15:10:53.694Z,2.20
2023-03-15T15:13:24.602Z,2.13
2023-03-15T15:15:56.201Z,2.97
2023-03-15T15:18:29.227Z,2.10
2023-03-15T15:20:58.670Z,2.60
2023-03-15T15:23:57.531Z,1.57
2023-03-15T15:26:27.405Z,2.20
2023-03-15T15:28:55.403Z,1.70
2023-03-15T15:31:24.519Z,1.88
2023-03-15T15:33:53.047Z,1.10
2023-03-15T15:36:26.018Z,1.73
2023-03-15T15:38:53.317Z,1.65
2023-03-15T15:41:25.661Z,1.45
2023-03-15T15:43:52.984Z,1.40
2023-03-15T15:46:20.170Z,1.65
2023-03-15T15:48:47.319Z,1.77
2023-03-15T15:51:28.038Z,1.50
2023-03-15T15:53:58.187Z,1.50
2023-03-15T15:56:44.436Z,1.70
2023-03-15T15:59:15.097Z,1.52
2023-03-15T16:01:59.057Z,2.17
2023-03-15T16:04:27.355Z,2.00
2023-03-15T16:07:03.783Z,1.90
2023-03-15T16:09:36.281Z,1.88
2023-03-15T16:12:11.511Z,1.90
2023-03-15T16:14:38.577Z,2.33
2023-03-15T16:17:16.627Z,2.22
2023-03-15T16:19:43.870Z,1.90
2023-03-15T16:22:11.262Z,2.03
2023-03-15T16:24:39.862Z,1.70
2023-03-15T16:27:08.595Z,1.70
2023-03-15T16:29:38.034Z,1.38
2023-03-15T16:32:17.664Z,1.73
2023-03-15T16:34:54.738Z,1.95
2023-03-15T16:37:29.089Z,1.70
2023-03-15T16:39:56.236Z,2.03
2023-03-15T16:42:25.777Z,2.08
2023-03-15T16:44:53.715Z,2.10
2023-03-15T16:47:21.364Z,2.35
2023-03-15T16:49:48.429Z,2.17
2023-03-15T16:52:17.293Z,2.53
2023-03-15T16:54:47.722Z,2.22
2023-03-15T16:57:22.110Z,2.65
2023-03-15T16:59:49.804Z,2.83
2023-03-15T17:02:28.989Z,2.80
2023-03-15T17:04:56.063Z,2.55
2023-03-15T17:07:30.012Z,2.47
2023-03-15T17:09:57.552Z,2.42
2023-03-15T17:12:29.322Z,2.72
2023-03-15T17:14:59.499Z,2.88
2023-03-15T17:17:28.669Z,2.55
2023-03-15T17:19:56.298Z,3.10
2023-03-15T17:22:25.409Z,2.97
2023-03-15T17:24:52.926Z,2.97
2023-03-15T17:27:26.432Z,3.28
2023-03-15T17:29:53.558Z,4.10
2023-03-15T17:32:20.725Z,3.47
2023-03-15T17:34:48.043Z,4.05
2023-03-15T17:37:16.706Z,3.97
2023-03-15T17:39:45.220Z,4.25
2023-03-15T17:42:15.691Z,5.03
2023-03-15T17:44:42.916Z,5.03
2023-03-15T17:47:13.593Z,5.18
2023-03-15T17:49:41.109Z,6.35
2023-03-15T17:52:18.670Z,7.20
2023-03-15T17:54:46.515Z,6.25
2023-03-15T17:57:13.621Z,6.28
2023-03-15T17:59:40.861Z,6.55
2023-03-15T18:02:17.784Z,6.72
2023-03-15T18:04:45.044Z,6.72
2023-03-15T18:07:12.419Z,15.40
2023-03-15T18:09:40.073Z,13.93
2023-03-15T18:12:12.802Z,9.45
2023-03-15T18:14:40.812Z,11.18
2023-03-15T18:17:08.092Z,10.80
2023-03-15T18:19:35.190Z,9.43
2023-03-15T18:22:02.665Z,9.45
2023-03-15T18:24:29.776Z,8.88
2023-03-15T18:26:56.956Z,9.23
2023-03-15T18:29:23.985Z,10.70
2023-03-15T18:31:51.048Z,10.00
2023-03-15T18:34:22.117Z,10.05
2023-03-15T18:36:49.423Z,9.80
2023-03-15T18:39:16.613Z,10.13
2023-03-15T18:41:43.651Z,9.52
2023-03-15T18:44:11.436Z,10.23
2023-03-15T18:46:38.552Z,9.10
2023-03-15T18:49:06.117Z,7.95
2023-03-15T18:51:33.196Z,7.97
2023-03-15T18:54:00.315Z,7.25
2023-03-15T18:56:34.536Z,7.35
2023-03-15T18:59:02.514Z,7.43
2023-03-15T19:01:29.855Z,8.10
2023-03-15T19:03:57.307Z,9.27
2023-03-15T19:06:24.418Z,7.45
2023-03-15T19:08:54.417Z,7.32
2023-03-15T19:11:24.120Z,7.40
2023-03-15T19:13:51.523Z,7.00
2023-03-15T19:16:22.322Z,7.43
2023-03-15T19:18:51.821Z,7.95
2023-03-15T19:21:19.938Z,7.22
2023-03-15T19:23:47.578Z,7.53
2023-03-15T19:26:14.933Z,6.97
2023-03-15T19:28:42.418Z,6.97
2023-03-15T19:31:09.735Z,6.70
2023-03-15T19:33:37.102Z,6.93
2023-03-15T19:36:04.756Z,7.20
2023-03-15T19:38:31.815Z,7.28
2023-03-15T19:41:03.912Z,7.07
2023-03-15T19:43:31.160Z,7.50
2023-03-15T19:45:58.560Z,7.68
2023-03-15T19:48:25.931Z,7.18
2023-03-15T19:50:53.141Z,8.50
2023-03-15T19:53:20.092Z,7.93
2023-03-15T19:55:47.147Z,7.70
2023-03-15T19:58:14.794Z,8.75
2023-03-15T20:00:41.954Z,10.65
2023-03-15T20:03:09.156Z,12.02
2023-03-15T20:05:37.846Z,10.93
2023-03-15T20:08:05.236Z,11.07
2023-03-15T20:10:32.446Z,8.40
2023-03-15T20:12:59.502Z,7.07
2023-03-15T20:15:28.235Z,6.50
2023-03-15T20:17:56.346Z,7.75
2023-03-15T20:20:23.922Z,7.05
2023-03-15T20:22:51.312Z,6.57
2023-03-15T20:25:20.306Z,7.15
2023-03-15T20:27:48.130Z,6.60
2023-03-15T20:30:17.159Z,6.28
2023-03-15T20:32:44.650Z,5.90
2023-03-15T20:35:12.396Z,7.15
2023-03-15T20:37:40.883Z,6.60
2023-03-15T20:40:11.781Z,7.75
2023-03-15T20:42:39.209Z,7.72
2023-03-15T20:45:07.494Z,7.78
2023-03-15T20:47:34.771Z,7.95
2023-03-15T20:50:03.420Z,7.45
2023-03-15T20:52:32.340Z,6.50
2023-03-15T20:54:59.869Z,6.75
2023-03-15T20:57:27.232Z,6.50
2023-03-15T20:59:54.436Z,6.40
2023-03-15T21:02:22.889Z,6.72
2023-03-15T21:04:50.151Z,6.30
2023-03-15T21:07:17.377Z,6.25
2023-03-15T21:09:44.502Z,6.35
2023-03-15T21:12:11.752Z,6.85
2023-03-15T21:14:38.818Z,7.78
2023-03-15T21:17:05.815Z,7.30
2023-03-15T21:19:33.032Z,7.25
2023-03-15T21:22:01.111Z,6.53
2023-03-15T21:24:32.537Z,6.50
2023-03-15T21:27:06.459Z,6.47
2023-03-15T21:29:34.240Z,7.47
2023-03-15T21:32:02.564Z,7.38
2023-03-15T21:34:29.671Z,7.68
2023-03-15T21:36:56.938Z,8.20
2023-03-15T21:39:24.289Z,7.97
2023-03-15T21:41:51.286Z,8.70
2023-03-15T21:44:18.365Z,8.48
2023-03-15T21:46:45.742Z,7.55
2023-03-15T21:49:12.950Z,7.22
2023-03-15T21:51:40.007Z,7.60
2023-03-15T21:54:07.140Z,7.95
2023-03-15T21:56:34.161Z,7.25
2023-03-15T21:59:01.866Z,7.72
2023-03-15T22:01:29.067Z,7.78
2023-03-15T22:03:56.187Z,7.28
2023-03-15T22:06:23.434Z,8.35
2023-03-15T22:08:50.816Z,7.95
2023-03-15T22:11:17.805Z,7.00
2023-03-15T22:13:45.438Z,7.10
2023-03-15T22:16:12.886Z,7.55
2023-03-15T22:18:41.079Z,7.32
2023-03-15T22:21:08.229Z,8.25
2023-03-15T22:23:35.319Z,7.35
2023-03-15T22:26:02.433Z,8.27
2023-03-15T22:28:29.493Z,8.50
2023-03-15T22:30:56.726Z,8.55
2023-03-15T22:33:23.869Z,8.20
2023-03-15T22:35:58.618Z,8.88
2023-03-15T22:38:26.414Z,9.07
2023-03-15T22:41:05.532Z,8.65
2023-03-15T22:43:32.736Z,9.35
2023-03-15T22:46:00.051Z,10.50
2023-03-15T22:48:28.048Z,9.43
2023-03-15T22:51:02.716Z,9.98
2023-03-15T22:53:30.181Z,9.52
2023-03-15T22:55:57.759Z,9.10
2023-03-15T22:58:25.448Z,9.30
2023-03-15T23:00:52.516Z,10.25
2023-03-15T23:03:19.671Z,10.10
2023-03-15T23:05:47.053Z,9.68
2023-03-15T23:08:14.098Z,9.23
2023-03-15T23:10:42.209Z,9.57
2023-03-15T23:13:09.777Z,8.77
2023-03-15T23:15:37.088Z,8.68
2023-03-15T23:18:05.536Z,8.70
2023-03-15T23:20:33.779Z,8.23
2023-03-15T23:23:00.949Z,8.35
2023-03-15T23:25:31.136Z,8.90
2023-03-15T23:30:25.639Z,8.98
2023-03-15T23:32:57.783Z,9.50
2023-03-15T23:35:25.593Z,9.55
2023-03-15T23:37:53.287Z,9.18
2023-03-15T23:40:21.543Z,9.68
2023-03-15T23:42:52.718Z,8.60
2023-03-15T23:45:19.831Z,9.30
2023-03-15T23:47:47.120Z,9.38
2023-03-15T23:50:14.518Z,8.88
2023-03-15T23:52:41.829Z,9.10
2023-03-15T23:55:10.110Z,9.80
2023-03-15T23:57:37.492Z,10.13
